sensor_id;sensor_type;location;lat;lon;timestamp;pressure;altitude;pressure_sealevel;temperature;humidity
10079;BME280;5078;42.544;22.966;2023-04-22T00:00:40;93565.19;;;6.66;100.00
10079;BME280;5078;42.544;22.966;2023-04-22T00:03:07;93571.16;;;6.77;100.00
10079;BME280;5078;42.544;22.966;2023-04-22T00:05:35;93578.38;;;6.66;100.00
10079;BME280;5078;42.544;22.966;2023-04-22T00:08:02;93571.63;;;6.72;100.00
10079;BME280;5078;42.544;22.966;2023-04-22T00:10:29;93576.25;;;6.78;100.00
10079;BME280;5078;42.544;22.966;2023-04-22T00:12:56;93567.66;;;6.76;100.00
10079;BME280;5078;42.544;22.966;2023-04-22T00:15:23;93564.75;;;6.87;100.00
10079;BME280;5078;42.544;22.966;2023-04-22T00:17:51;93563.75;;;6.80;100.00
10079;BME280;5078;42.544;22.966;2023-04-22T00:20:19;93569.34;;;6.77;100.00
10079;BME280;5078;42.544;22.966;2023-04-22T00:22:48;93573.16;;;6.91;100.00
10079;BME280;5078;42.544;22.966;2023-04-22T00:25:15;93574.97;;;6.90;100.00
10079;BME280;5078;42.544;22.966;2023-04-22T00:27:42;93581.78;;;7.09;100.00
10079;BME280;5078;42.544;22.966;2023-04-22T00:30:10;93570.72;;;7.06;100.00
10079;BME280;5078;42.544;22.966;2023-04-22T00:32:36;93583.75;;;7.16;100.00
10079;BME280;5078;42.544;22.966;2023-04-22T00:35:04;93587.00;;;7.01;100.00
10079;BME280;5078;42.544;22.966;2023-04-22T00:37:31;93583.28;;;7.12;100.00
10079;BME280;5078;42.544;22.966;2023-04-22T00:39:59;93579.81;;;7.20;100.00
10079;BME280;5078;42.544;22.966;2023-04-22T00:42:26;93582.59;;;7.10;100.00
10079;BME280;5078;42.544;22.966;2023-04-22T00:44:53;93585.56;;;7.07;100.00
10079;BME280;5078;42.544;22.966;2023-04-22T00:47:21;93573.00;;;7.01;100.00
10079;BME280;5078;42.544;22.966;2023-04-22T00:49:51;93585.72;;;6.97;100.00
10079;BME280;5078;42.544;22.966;2023-04-22T00:52:18;93575.16;;;6.97;100.00
10079;BME280;5078;42.544;22.966;2023-04-22T00:54:45;93586.75;;;6.62;100.00
10079;BME280;5078;42.544;22.966;2023-04-22T00:57:16;93588.59;;;6.69;100.00
10079;BME280;5078;42.544;22.966;2023-04-22T00:59:44;93590.53;;;6.59;100.00
10079;BME280;5078;42.544;22.966;2023-04-22T01:02:11;93590.47;;;6.51;100.00
10079;BME280;5078;42.544;22.966;2023-04-22T01:04:38;93586.91;;;6.68;100.00
10079;BME280;5078;42.544;22.966;2023-04-22T01:07:08;93576.69;;;6.65;100.00
10079;BME280;5078;42.544;22.966;2023-04-22T01:09:35;93587.88;;;6.59;100.00
10079;BME280;5078;42.544;22.966;2023-04-22T01:12:02;93583.28;;;6.27;100.00
10079;BME280;5078;42.544;22.966;2023-04-22T01:14:31;93591.88;;;6.29;100.00
10079;BME280;5078;42.544;22.966;2023-04-22T01:16:57;93589.72;;;6.33;100.00
10079;BME280;5078;42.544;22.966;2023-04-22T01:19:25;93586.28;;;6.32;100.00
10079;BME280;5078;42.544;22.966;2023-04-22T01:21:54;93590.81;;;6.56;100.00
10079;BME280;5078;42.544;22.966;2023-04-22T01:24:22;93589.84;;;6.57;100.00
10079;BME280;5078;42.544;22.966;2023-04-22T01:26:49;93589.41;;;6.70;100.00
10079;BME280;5078;42.544;22.966;2023-04-22T01:29:16;93584.59;;;6.57;100.00
10079;BME280;5078;42.544;22.966;2023-04-22T01:31:43;93581.66;;;6.68;100.00
10079;BME280;5078;42.544;22.966;2023-04-22T01:34:10;93590.88;;;6.73;100.00
10079;BME280;5078;42.544;22.966;2023-04-22T01:36:36;93587.78;;;6.77;100.00
10079;BME280;5078;42.544;22.966;2023-04-22T01:39:03;93587.94;;;6.76;100.00
10079;BME280;5078;42.544;22.966;2023-04-22T01:41:32;93596.97;;;6.73;100.00
10079;BME280;5078;42.544;22.966;2023-04-22T01:43:59;93587.22;;;6.57;100.00
10079;BME280;5078;42.544;22.966;2023-04-22T01:46:26;93590.97;;;6.46;100.00
10079;BME280;5078;42.544;22.966;2023-04-22T01:48:53;93593.25;;;6.15;100.00
10079;BME280;5078;42.544;22.966;2023-04-22T01:51:20;93565.53;;;6.03;100.00
10079;BME280;5078;42.544;22.966;2023-04-22T01:53:48;93594.84;;;6.08;100.00
10079;BME280;5078;42.544;22.966;2023-04-22T01:56:15;93593.81;;;6.27;100.00
10079;BME280;5078;42.544;22.966;2023-04-22T01:58:43;93597.94;;;6.03;100.00
10079;BME280;5078;42.544;22.966;2023-04-22T02:01:11;93599.09;;;6.27;100.00
10079;BME280;5078;42.544;22.966;2023-04-22T02:03:38;93595.00;;;6.33;100.00
10079;BME280;5078;42.544;22.966;2023-04-22T02:06:05;93589.75;;;6.41;100.00
10079;BME280;5078;42.544;22.966;2023-04-22T02:08:32;93596.19;;;6.12;100.00
10079;BME280;5078;42.544;22.966;2023-04-22T02:10:59;93591.84;;;6.03;100.00
10079;BME280;5078;42.544;22.966;2023-04-22T02:13:26;93593.38;;;5.88;100.00
10079;BME280;5078;42.544;22.966;2023-04-22T02:16:01;93599.63;;;5.69;100.00
10079;BME280;5078;42.544;22.966;2023-04-22T02:18:27;93596.03;;;5.70;100.00
10079;BME280;5078;42.544;22.966;2023-04-22T02:20:55;93593.66;;;5.40;100.00
10079;BME280;5078;42.544;22.966;2023-04-22T02:23:21;93596.94;;;5.60;100.00
10079;BME280;5078;42.544;22.966;2023-04-22T02:25:48;93597.03;;;5.51;100.00
10079;BME280;5078;42.544;22.966;2023-04-22T02:28:16;93588.47;;;5.49;100.00
10079;BME280;5078;42.544;22.966;2023-04-22T02:30:43;93589.59;;;5.28;100.00
10079;BME280;5078;42.544;22.966;2023-04-22T02:33:12;93592.53;;;5.43;100.00
10079;BME280;5078;42.544;22.966;2023-04-22T02:35:38;93600.56;;;5.41;100.00
10079;BME280;5078;42.544;22.966;2023-04-22T02:38:05;93589.97;;;5.51;100.00
10079;BME280;5078;42.544;22.966;2023-04-22T02:40:32;93601.31;;;5.34;100.00
10079;BME280;5078;42.544;22.966;2023-04-22T02:42:59;93598.63;;;5.44;100.00
10079;BME280;5078;42.544;22.966;2023-04-22T02:45:26;93611.00;;;5.69;100.00
10079;BME280;5078;42.544;22.966;2023-04-22T02:47:52;93609.03;;;5.71;100.00
10079;BME280;5078;42.544;22.966;2023-04-22T02:50:20;93616.34;;;5.59;100.00
10079;BME280;5078;42.544;22.966;2023-04-22T02:52:47;93615.59;;;5.67;100.00
10079;BME280;5078;42.544;22.966;2023-04-22T02:55:14;93615.56;;;5.85;100.00
10079;BME280;5078;42.544;22.966;2023-04-22T02:57:41;93619.28;;;5.38;100.00
10079;BME280;5078;42.544;22.966;2023-04-22T03:00:08;93618.97;;;5.41;100.00
10079;BME280;5078;42.544;22.966;2023-04-22T03:02:35;93630.25;;;5.52;100.00
10079;BME280;5078;42.544;22.966;2023-04-22T03:05:03;93618.44;;;5.56;100.00
10079;BME280;5078;42.544;22.966;2023-04-22T03:07:31;93621.34;;;5.71;100.00
10079;BME280;5078;42.544;22.966;2023-04-22T03:09:58;93616.09;;;5.71;100.00
10079;BME280;5078;42.544;22.966;2023-04-22T03:12:24;93614.28;;;5.71;100.00
10079;BME280;5078;42.544;22.966;2023-04-22T03:14:51;93615.50;;;5.59;100.00
10079;BME280;5078;42.544;22.966;2023-04-22T03:17:18;93624.91;;;5.79;100.00
10079;BME280;5078;42.544;22.966;2023-04-22T03:19:45;93623.53;;;5.75;100.00
10079;BME280;5078;42.544;22.966;2023-04-22T03:22:12;93623.38;;;5.59;100.00
10079;BME280;5078;42.544;22.966;2023-04-22T03:24:40;93632.59;;;5.37;100.00
10079;BME280;5078;42.544;22.966;2023-04-22T03:27:06;93623.94;;;5.62;100.00
10079;BME280;5078;42.544;22.966;2023-04-22T03:29:34;93638.03;;;5.44;100.00
10079;BME280;5078;42.544;22.966;2023-04-22T03:32:01;93638.66;;;5.37;100.00
10079;BME280;5078;42.544;22.966;2023-04-22T03:34:28;93638.28;;;5.50;100.00
10079;BME280;5078;42.544;22.966;2023-04-22T03:36:55;93630.78;;;5.55;100.00
10079;BME280;5078;42.544;22.966;2023-04-22T03:39:23;93646.47;;;5.65;100.00
10079;BME280;5078;42.544;22.966;2023-04-22T03:41:51;93649.25;;;5.63;100.00
10079;BME280;5078;42.544;22.966;2023-04-22T03:44:17;93646.41;;;5.57;100.00
10079;BME280;5078;42.544;22.966;2023-04-22T03:46:44;93647.66;;;5.53;100.00
10079;BME280;5078;42.544;22.966;2023-04-22T03:49:11;93646.38;;;5.39;100.00
10079;BME280;5078;42.544;22.966;2023-04-22T03:51:38;93644.44;;;5.41;100.00
10079;BME280;5078;42.544;22.966;2023-04-22T03:54:04;93640.38;;;5.65;100.00
10079;BME280;5078;42.544;22.966;2023-04-22T03:56:31;93641.13;;;5.75;100.00
10079;BME280;5078;42.544;22.966;2023-04-22T03:59:03;93641.91;;;5.93;100.00
10079;BME280;5078;42.544;22.966;2023-04-22T04:01:32;93648.13;;;6.02;100.00
10079;BME280;5078;42.544;22.966;2023-04-22T04:03:58;93638.09;;;5.88;100.00
10079;BME280;5078;42.544;22.966;2023-04-22T04:06:25;93654.50;;;5.99;100.00
10079;BME280;5078;42.544;22.966;2023-04-22T04:08:52;93651.19;;;5.79;100.00
10079;BME280;5078;42.544;22.966;2023-04-22T04:11:19;93656.31;;;5.45;100.00
10079;BME280;5078;42.544;22.966;2023-04-22T04:13:45;93654.88;;;5.51;100.00
10079;BME280;5078;42.544;22.966;2023-04-22T04:16:13;93656.09;;;5.74;100.00
10079;BME280;5078;42.544;22.966;2023-04-22T04:18:40;93653.56;;;5.91;100.00
10079;BME280;5078;42.544;22.966;2023-04-22T04:21:07;93661.19;;;5.94;100.00
10079;BME280;5078;42.544;22.966;2023-04-22T04:23:34;93658.91;;;6.43;100.00
10079;BME280;5078;42.544;22.966;2023-04-22T04:26:00;93655.97;;;6.80;100.00
10079;BME280;5078;42.544;22.966;2023-04-22T04:28:30;93653.78;;;7.10;100.00
10079;BME280;5078;42.544;22.966;2023-04-22T04:30:59;93648.81;;;7.90;100.00
10079;BME280;5078;42.544;22.966;2023-04-22T04:33:28;93661.81;;;8.33;100.00
10079;BME280;5078;42.544;22.966;2023-04-22T04:35:56;93666.63;;;8.54;100.00
10079;BME280;5078;42.544;22.966;2023-04-22T04:38:23;93648.44;;;8.51;100.00
10079;BME280;5078;42.544;22.966;2023-04-22T04:40:51;93671.41;;;8.42;100.00
10079;BME280;5078;42.544;22.966;2023-04-22T04:43:18;93667.94;;;9.05;100.00
10079;BME280;5078;42.544;22.966;2023-04-22T04:45:44;93671.41;;;9.45;100.00
10079;BME280;5078;42.544;22.966;2023-04-22T04:48:11;93673.53;;;9.50;100.00
10079;BME280;5078;42.544;22.966;2023-04-22T04:50:40;93678.63;;;9.83;98.54
10079;BME280;5078;42.544;22.966;2023-04-22T04:53:07;93681.47;;;9.50;96.83
10079;BME280;5078;42.544;22.966;2023-04-22T04:55:34;93670.88;;;9.19;95.22
10079;BME280;5078;42.544;22.966;2023-04-22T04:58:01;93687.31;;;9.37;95.94
10079;BME280;5078;42.544;22.966;2023-04-22T05:00:28;93682.72;;;9.62;94.49
10079;BME280;5078;42.544;22.966;2023-04-22T05:02:55;93686.84;;;9.34;94.11
10079;BME280;5078;42.544;22.966;2023-04-22T05:05:22;93680.38;;;9.90;92.38
10079;BME280;5078;42.544;22.966;2023-04-22T05:07:50;93695.59;;;10.20;89.22
10079;BME280;5078;42.544;22.966;2023-04-22T05:10:18;93684.13;;;10.80;83.22
10079;BME280;5078;42.544;22.966;2023-04-22T05:12:44;93688.19;;;10.91;78.84
10079;BME280;5078;42.544;22.966;2023-04-22T05:15:12;93697.59;;;10.78;77.06
10079;BME280;5078;42.544;22.966;2023-04-22T05:17:39;93685.91;;;9.81;85.32
10079;BME280;5078;42.544;22.966;2023-04-22T05:20:06;93689.44;;;10.95;79.94
10079;BME280;5078;42.544;22.966;2023-04-22T05:22:33;93684.25;;;11.31;77.27
10079;BME280;5078;42.544;22.966;2023-04-22T05:25:01;93689.72;;;11.15;75.81
10079;BME280;5078;42.544;22.966;2023-04-22T05:27:28;93688.53;;;11.32;74.43
10079;BME280;5078;42.544;22.966;2023-04-22T05:29:55;93682.38;;;11.98;71.33
10079;BME280;5078;42.544;22.966;2023-04-22T05:32:22;93667.34;;;11.69;71.51
10079;BME280;5078;42.544;22.966;2023-04-22T05:34:49;93680.69;;;11.60;72.34
10079;BME280;5078;42.544;22.966;2023-04-22T05:37:16;93665.00;;;11.80;72.37
10079;BME280;5078;42.544;22.966;2023-04-22T05:39:42;93677.91;;;11.32;73.42
10079;BME280;5078;42.544;22.966;2023-04-22T05:42:11;93675.09;;;11.70;73.32
10079;BME280;5078;42.544;22.966;2023-04-22T05:44:37;93680.91;;;11.95;71.71
10079;BME280;5078;42.544;22.966;2023-04-22T05:47:04;93680.53;;;12.20;68.67
10079;BME280;5078;42.544;22.966;2023-04-22T05:49:31;93672.00;;;12.46;67.23
10079;BME280;5078;42.544;22.966;2023-04-22T05:51:57;93682.56;;;12.61;66.81
10079;BME280;5078;42.544;22.966;2023-04-22T05:54:24;93679.13;;;12.45;65.83
10079;BME280;5078;42.544;22.966;2023-04-22T05:56:51;93683.97;;;10.96;76.11
10079;BME280;5078;42.544;22.966;2023-04-22T05:59:19;93688.44;;;10.66;81.75
10079;BME280;5078;42.544;22.966;2023-04-22T06:01:46;93671.88;;;11.38;77.67
10079;BME280;5078;42.544;22.966;2023-04-22T06:04:13;93691.19;;;12.20;71.93
10079;BME280;5078;42.544;22.966;2023-04-22T06:06:39;93680.72;;;12.89;66.81
10079;BME280;5078;42.544;22.966;2023-04-22T06:09:06;93680.28;;;12.86;65.58
10079;BME280;5078;42.544;22.966;2023-04-22T06:11:33;93678.56;;;13.34;64.22
10079;BME280;5078;42.544;22.966;2023-04-22T06:14:00;93676.38;;;13.51;62.71
10079;BME280;5078;42.544;22.966;2023-04-22T06:16:28;93672.94;;;14.26;59.07
10079;BME280;5078;42.544;22.966;2023-04-22T06:18:55;93678.53;;;14.71;56.73
10079;BME280;5078;42.544;22.966;2023-04-22T06:21:22;93677.41;;;14.12;60.28
10079;BME280;5078;42.544;22.966;2023-04-22T06:23:48;93678.66;;;14.42;60.17
10079;BME280;5078;42.544;22.966;2023-04-22T06:26:15;93677.72;;;14.83;56.78
10079;BME280;5078;42.544;22.966;2023-04-22T06:28:42;93679.75;;;14.88;55.94
10079;BME280;5078;42.544;22.966;2023-04-22T06:31:08;93675.13;;;15.42;55.00
10079;BME280;5078;42.544;22.966;2023-04-22T06:33:37;93671.34;;;15.76;53.26
10079;BME280;5078;42.544;22.966;2023-04-22T06:36:04;93670.72;;;15.74;53.96
10079;BME280;5078;42.544;22.966;2023-04-22T06:38:31;93664.06;;;15.90;52.84
10079;BME280;5078;42.544;22.966;2023-04-22T06:40:58;93660.53;;;16.03;51.83
10079;BME280;5078;42.544;22.966;2023-04-22T06:43:25;93660.69;;;15.63;52.45
10079;BME280;5078;42.544;22.966;2023-04-22T06:45:52;93660.69;;;15.56;52.86
10079;BME280;5078;42.544;22.966;2023-04-22T06:48:18;93655.84;;;15.91;53.57
10079;BME280;5078;42.544;22.966;2023-04-22T06:50:46;93659.75;;;15.95;51.79
10079;BME280;5078;42.544;22.966;2023-04-22T06:53:13;93658.34;;;15.86;53.31
10079;BME280;5078;42.544;22.966;2023-04-22T06:55:40;93659.53;;;16.60;50.60
10079;BME280;5078;42.544;22.966;2023-04-22T06:58:07;93642.91;;;15.88;53.21
10079;BME280;5078;42.544;22.966;2023-04-22T07:00:34;93656.06;;;17.10;49.60
10079;BME280;5078;42.544;22.966;2023-04-22T07:03:00;93654.22;;;17.29;48.67
10079;BME280;5078;42.544;22.966;2023-04-22T07:05:27;93659.03;;;16.45;50.41
10079;BME280;5078;42.544;22.966;2023-04-22T07:07:55;93649.13;;;17.02;49.89
10079;BME280;5078;42.544;22.966;2023-04-22T07:10:23;93645.91;;;17.93;47.84
10079;BME280;5078;42.544;22.966;2023-04-22T07:12:50;93648.63;;;18.35;46.10
10079;BME280;5078;42.544;22.966;2023-04-22T07:15:16;93636.63;;;18.91;44.97
10079;BME280;5078;42.544;22.966;2023-04-22T07:17:43;93646.06;;;18.82;44.80
10079;BME280;5078;42.544;22.966;2023-04-22T07:20:10;93631.47;;;18.36;45.61
10079;BME280;5078;42.544;22.966;2023-04-22T07:22:37;93635.22;;;19.00;44.18
10079;BME280;5078;42.544;22.966;2023-04-22T07:25:08;93607.88;;;18.91;44.00
10079;BME280;5078;42.544;22.966;2023-04-22T07:27:35;93638.63;;;19.07;43.71
10079;BME280;5078;42.544;22.966;2023-04-22T07:30:02;93642.00;;;18.49;44.06
10079;BME280;5078;42.544;22.966;2023-04-22T07:32:28;93642.72;;;18.56;44.07
10079;BME280;5078;42.544;22.966;2023-04-22T07:34:58;93643.44;;;18.63;43.48
10079;BME280;5078;42.544;22.966;2023-04-22T07:37:24;93635.09;;;19.07;41.87
10079;BME280;5078;42.544;22.966;2023-04-22T07:39:51;93643.16;;;19.30;43.55
10079;BME280;5078;42.544;22.966;2023-04-22T07:42:19;93638.56;;;19.78;41.46
10079;BME280;5078;42.544;22.966;2023-04-22T07:44:46;93650.97;;;18.43;42.16
10079;BME280;5078;42.544;22.966;2023-04-22T07:47:13;93643.97;;;18.42;42.60
10079;BME280;5078;42.544;22.966;2023-04-22T07:49:39;93653.41;;;18.02;43.32
10079;BME280;5078;42.544;22.966;2023-04-22T07:52:07;93650.78;;;17.59;44.42
10079;BME280;5078;42.544;22.966;2023-04-22T07:54:34;93644.38;;;18.27;44.01
10079;BME280;5078;42.544;22.966;2023-04-22T07:57:01;93638.53;;;18.72;42.60
10079;BME280;5078;42.544;22.966;2023-04-22T07:59:29;93642.22;;;19.13;42.88
10079;BME280;5078;42.544;22.966;2023-04-22T08:01:55;93641.88;;;19.45;41.51
10079;BME280;5078;42.544;22.966;2023-04-22T08:04:22;93636.38;;;19.28;40.68
10079;BME280;5078;42.544;22.966;2023-04-22T08:06:49;93638.50;;;18.90;41.75
10079;BME280;5078;42.544;22.966;2023-04-22T08:09:15;93636.00;;;19.59;40.14
10079;BME280;5078;42.544;22.966;2023-04-22T08:11:42;93635.78;;;19.73;40.69
10079;BME280;5078;42.544;22.966;2023-04-22T08:14:09;93636.47;;;19.80;40.22
10079;BME280;5078;42.544;22.966;2023-04-22T08:16:38;93602.25;;;19.92;40.56
10079;BME280;5078;42.544;22.966;2023-04-22T08:19:05;93624.56;;;20.96;37.62
10079;BME280;5078;42.544;22.966;2023-04-22T08:21:32;93620.59;;;20.24;37.28
10079;BME280;5078;42.544;22.966;2023-04-22T08:24:01;93626.28;;;19.58;38.44
10079;BME280;5078;42.544;22.966;2023-04-22T08:26:28;93627.03;;;18.95;39.44
10079;BME280;5078;42.544;22.966;2023-04-22T08:28:55;93631.06;;;18.62;39.88
10079;BME280;5078;42.544;22.966;2023-04-22T08:31:21;93625.94;;;18.72;41.21
10079;BME280;5078;42.544;22.966;2023-04-22T08:33:50;93628.66;;;18.96;42.23
10079;BME280;5078;42.544;22.966;2023-04-22T08:36:16;93631.59;;;19.06;41.16
10079;BME280;5078;42.544;22.966;2023-04-22T08:38:46;93617.34;;;19.17;40.47
10079;BME280;5078;42.544;22.966;2023-04-22T08:41:12;93627.59;;;19.68;40.66
10079;BME280;5078;42.544;22.966;2023-04-22T08:43:40;93625.53;;;19.23;39.16
10079;BME280;5078;42.544;22.966;2023-04-22T08:46:07;93614.28;;;19.14;37.16
10079;BME280;5078;42.544;22.966;2023-04-22T08:48:33;93623.16;;;19.38;37.81
10079;BME280;5078;42.544;22.966;2023-04-22T08:51:02;93624.59;;;18.93;34.05
10079;BME280;5078;42.544;22.966;2023-04-22T08:53:29;93612.03;;;19.70;35.51
10079;BME280;5078;42.544;22.966;2023-04-22T08:55:56;93616.06;;;19.84;36.90
10079;BME280;5078;42.544;22.966;2023-04-22T08:58:24;93611.66;;;20.35;35.03
10079;BME280;5078;42.544;22.966;2023-04-22T09:00:51;93613.63;;;20.40;35.53
10079;BME280;5078;42.544;22.966;2023-04-22T09:03:18;93603.66;;;20.40;36.39
10079;BME280;5078;42.544;22.966;2023-04-22T09:05:46;93606.00;;;20.20;36.11
10079;BME280;5078;42.544;22.966;2023-04-22T09:08:18;93595.75;;;20.79;35.21
10079;BME280;5078;42.544;22.966;2023-04-22T09:10:45;93600.06;;;21.36;32.53
10079;BME280;5078;42.544;22.966;2023-04-22T09:13:12;93592.50;;;21.16;34.09
10079;BME280;5078;42.544;22.966;2023-04-22T09:15:39;93589.34;;;21.19;34.04
10079;BME280;5078;42.544;22.966;2023-04-22T09:18:08;93589.03;;;21.54;33.83
10079;BME280;5078;42.544;22.966;2023-04-22T09:20:35;93584.13;;;21.95;34.30
10079;BME280;5078;42.544;22.966;2023-04-22T09:23:02;93582.22;;;21.96;33.93
10079;BME280;5078;42.544;22.966;2023-04-22T09:25:32;93585.94;;;19.82;35.82
10079;BME280;5078;42.544;22.966;2023-04-22T09:28:00;93582.44;;;20.27;36.01
10079;BME280;5078;42.544;22.966;2023-04-22T09:30:29;93584.31;;;19.57;37.51
10079;BME280;5078;42.544;22.966;2023-04-22T09:32:57;93586.47;;;19.84;36.11
10079;BME280;5078;42.544;22.966;2023-04-22T09:35:26;93583.88;;;20.18;35.49
10079;BME280;5078;42.544;22.966;2023-04-22T09:37:53;93582.63;;;20.54;33.98
10079;BME280;5078;42.544;22.966;2023-04-22T09:40:20;93572.06;;;19.90;34.62
10079;BME280;5078;42.544;22.966;2023-04-22T09:42:49;93571.09;;;20.25;34.23
10079;BME280;5078;42.544;22.966;2023-04-22T09:45:30;93567.16;;;19.47;33.69
10079;BME280;5078;42.544;22.966;2023-04-22T09:48:00;93559.88;;;19.59;34.31
10079;BME280;5078;42.544;22.966;2023-04-22T09:50:27;93558.13;;;20.22;34.25
10079;BME280;5078;42.544;22.966;2023-04-22T09:52:56;93552.50;;;20.40;34.51
10079;BME280;5078;42.544;22.966;2023-04-22T09:55:24;93555.94;;;19.90;35.45
10079;BME280;5078;42.544;22.966;2023-04-22T09:57:54;93554.34;;;19.66;34.65
10079;BME280;5078;42.544;22.966;2023-04-22T10:00:22;93552.81;;;20.10;34.25
10079;BME280;5078;42.544;22.966;2023-04-22T10:02:49;93549.75;;;20.07;34.80
10079;BME280;5078;42.544;22.966;2023-04-22T10:05:16;93551.78;;;19.18;33.84
10079;BME280;5078;42.544;22.966;2023-04-22T10:07:43;93540.81;;;19.20;34.18
10079;BME280;5078;42.544;22.966;2023-04-22T10:10:10;93552.25;;;19.15;33.69
10079;BME280;5078;42.544;22.966;2023-04-22T10:12:37;93550.84;;;19.25;33.58
10079;BME280;5078;42.544;22.966;2023-04-22T10:15:06;93537.72;;;19.40;33.60
10079;BME280;5078;42.544;22.966;2023-04-22T10:17:36;93533.69;;;19.54;33.05
10079;BME280;5078;42.544;22.966;2023-04-22T10:20:07;93521.44;;;19.87;33.66
10079;BME280;5078;42.544;22.966;2023-04-22T10:22:39;93520.69;;;20.37;32.41
10079;BME280;5078;42.544;22.966;2023-04-22T10:25:10;93527.59;;;19.71;33.76
10079;BME280;5078;42.544;22.966;2023-04-22T10:27:38;93519.22;;;19.03;35.46
10079;BME280;5078;42.544;22.966;2023-04-22T10:30:08;93524.16;;;18.83;36.33
10079;BME280;5078;42.544;22.966;2023-04-22T10:32:35;93518.88;;;18.76;35.07
10079;BME280;5078;42.544;22.966;2023-04-22T10:35:07;93524.47;;;18.86;34.89
10079;BME280;5078;42.544;22.966;2023-04-22T10:37:34;93520.94;;;19.21;34.25
10079;BME280;5078;42.544;22.966;2023-04-22T10:40:06;93503.16;;;19.60;33.11
10079;BME280;5078;42.544;22.966;2023-04-22T10:42:34;93495.94;;;19.90;32.12
10079;BME280;5078;42.544;22.966;2023-04-22T10:45:01;93493.31;;;19.95;31.84
10079;BME280;5078;42.544;22.966;2023-04-22T10:47:32;93484.94;;;19.51;32.40
10079;BME280;5078;42.544;22.966;2023-04-22T10:50:22;93501.09;;;20.25;31.37
10079;BME280;5078;42.544;22.966;2023-04-22T10:52:53;93494.66;;;20.26;30.69
10079;BME280;5078;42.544;22.966;2023-04-22T10:55:20;93495.88;;;20.35;29.03
10079;BME280;5078;42.544;22.966;2023-04-22T10:57:48;93485.94;;;20.92;29.26
10079;BME280;5078;42.544;22.966;2023-04-22T11:00:39;93486.53;;;21.16;30.37
10079;BME280;5078;42.544;22.966;2023-04-22T11:03:15;93487.38;;;20.43;30.32
10079;BME280;5078;42.544;22.966;2023-04-22T11:05:42;93494.63;;;19.23;33.05
10079;BME280;5078;42.544;22.966;2023-04-22T11:08:21;93493.44;;;19.31;33.23
10079;BME280;5078;42.544;22.966;2023-04-22T11:11:07;93491.56;;;18.67;33.78
10079;BME280;5078;42.544;22.966;2023-04-22T11:13:34;93489.53;;;18.74;33.51
10079;BME280;5078;42.544;22.966;2023-04-22T11:16:01;93492.03;;;18.52;32.98
10079;BME280;5078;42.544;22.966;2023-04-22T11:18:29;93479.88;;;18.38;33.93
10079;BME280;5078;42.544;22.966;2023-04-22T11:21:02;93478.47;;;18.59;33.06
10079;BME280;5078;42.544;22.966;2023-04-22T11:23:31;93488.50;;;18.64;36.29
10079;BME280;5078;42.544;22.966;2023-04-22T11:25:59;93496.22;;;18.25;35.37
10079;BME280;5078;42.544;22.966;2023-04-22T11:28:26;93491.66;;;18.61;35.92
10079;BME280;5078;42.544;22.966;2023-04-22T11:31:00;93484.19;;;18.51;34.99
10079;BME280;5078;42.544;22.966;2023-04-22T11:33:27;93495.38;;;18.24;35.26
10079;BME280;5078;42.544;22.966;2023-04-22T11:35:55;93470.13;;;17.30;35.11
10079;BME280;5078;42.544;22.966;2023-04-22T11:38:23;93493.41;;;17.48;35.31
10079;BME280;5078;42.544;22.966;2023-04-22T11:40:49;93501.59;;;17.53;35.93
10079;BME280;5078;42.544;22.966;2023-04-22T11:43:16;93489.00;;;17.83;36.58
10079;BME280;5078;42.544;22.966;2023-04-22T11:45:44;93493.34;;;17.96;35.47
10079;BME280;5078;42.544;22.966;2023-04-22T11:48:10;93493.97;;;18.10;35.77
10079;BME280;5078;42.544;22.966;2023-04-22T11:50:39;93489.41;;;18.10;35.27
10079;BME280;5078;42.544;22.966;2023-04-22T11:53:14;93489.91;;;18.31;35.38
10079;BME280;5078;42.544;22.966;2023-04-22T11:55:41;93491.06;;;18.47;35.37
10079;BME280;5078;42.544;22.966;2023-04-22T11:58:11;93491.88;;;18.24;35.82
10079;BME280;5078;42.544;22.966;2023-04-22T12:00:40;93493.72;;;18.00;36.36
10079;BME280;5078;42.544;22.966;2023-04-22T12:03:11;93502.06;;;17.61;36.85
10079;BME280;5078;42.544;22.966;2023-04-22T12:05:40;93492.63;;;17.89;37.10
10079;BME280;5078;42.544;22.966;2023-04-22T12:08:09;93491.72;;;17.95;37.93
10079;BME280;5078;42.544;22.966;2023-04-22T12:10:42;93501.31;;;17.42;40.94
10079;BME280;5078;42.544;22.966;2023-04-22T12:13:09;93491.31;;;17.01;42.33
10079;BME280;5078;42.544;22.966;2023-04-22T12:15:43;93511.72;;;16.77;43.65
10079;BME280;5078;42.544;22.966;2023-04-22T12:18:10;93517.84;;;16.66;44.14
10079;BME280;5078;42.544;22.966;2023-04-22T12:20:38;93518.69;;;16.59;45.26
10079;BME280;5078;42.544;22.966;2023-04-22T12:23:11;93476.81;;;16.28;45.22
10079;BME280;5078;42.544;22.966;2023-04-22T12:25:41;93492.22;;;16.51;45.13
10079;BME280;5078;42.544;22.966;2023-04-22T12:28:09;93505.09;;;16.43;45.86
10079;BME280;5078;42.544;22.966;2023-04-22T12:30:36;93517.59;;;16.24;46.58
10079;BME280;5078;42.544;22.966;2023-04-22T12:33:02;93521.19;;;15.86;46.15
10079;BME280;5078;42.544;22.966;2023-04-22T12:35:30;93510.19;;;16.01;46.53
10079;BME280;5078;42.544;22.966;2023-04-22T12:37:57;93511.16;;;16.06;46.95
10079;BME280;5078;42.544;22.966;2023-04-22T12:40:24;93515.53;;;16.01;47.15
10079;BME280;5078;42.544;22.966;2023-04-22T12:42:52;93511.63;;;15.96;47.95
10079;BME280;5078;42.544;22.966;2023-04-22T12:45:19;93524.19;;;16.21;47.65
10079;BME280;5078;42.544;22.966;2023-04-22T12:47:47;93517.13;;;15.77;47.01
10079;BME280;5078;42.544;22.966;2023-04-22T12:50:14;93516.72;;;16.05;47.65
10079;BME280;5078;42.544;22.966;2023-04-22T12:52:41;93525.19;;;16.02;47.42
10079;BME280;5078;42.544;22.966;2023-04-22T12:55:08;93517.66;;;16.17;48.08
10079;BME280;5078;42.544;22.966;2023-04-22T12:57:34;93520.88;;;16.26;48.16
10079;BME280;5078;42.544;22.966;2023-04-22T13:00:04;93521.03;;;16.31;48.05
10079;BME280;5078;42.544;22.966;2023-04-22T13:02:31;93499.06;;;16.47;48.02